Aérodrome :
LOGIN :

S'inscrire | Disclaimer

   EN    FR    IT 

 










Légende :    VFR   VFR Marginal   IFR   IFR Intensif   IFR Très Intensif
Visi : 
Plafond : 
>= 8 km
>= 3000ft
5 à 8 km
1000 à 3000 ft
1500m à 5 km
500 à 1000 ft
800 à 1500m
200 à 500 ft
< 800m
< 200 ft
Symboles :   Orages  Brouillard  Fortes neiges  Fortes précipitations  Vent > 20 kt
SIGMETs :   Divers  Orages  Givrage  Turbulence  Onde Orograph.  Cendres Volcan.






- Altitude de l'aérodrome : 364 ft
- Code IATA : FRA


EDDF - Frankfurt Int.

DERNIER METAR :
  • 091050Z 24009KT 9999 FEW008 BKN014 03/01 Q1006 TEMPO SCT014

METARs EXPIRÉS :
  • 091020Z 23008KT 9999 FEW008 SCT014 03/01 Q1007 TEMPO BKN010
  • 090950Z 23006KT 9999 FEW004 SCT010 02/01 Q1007 TEMPO BKN010
  • 090920Z 23006KT 9999 FEW004 SCT009 BKN045 02/01 Q1006 TEMPO BKN009
  • 090850Z 22007KT 9999 FEW004 SCT009 01/00 Q1006 TEMPO BKN010
  • 090820Z 22004KT 9999 FEW004 00/M00 Q1006 NOSIG

TAF AMD TAF EDDF
Valide du 09 à 09h jusqu'au 10 à 12h UTC


090900Z 0909/1012 21005KT 9999 FEW009 SCT035
TEMPO 0909/0911 BKN008
TEMPO 0911/0924 BKN030
BECMG 1002/1005 14005KT
PROB30
TEMPO 1002/1006 2500 BCFG BKN004
TEMPO 1011/1012 4000 -SNRA BKN014



MET'MAP, la Météo Aéronautique d'un coup d'oeil ! - Copyright ORBIFLY Décembre 2007 - Disclaimer

ORBIFLY MET'MAP TEAM :

Programmation & Développement : Alexandra Zaïnal
Sur une idée originale de : Baudouin d'Aumeries
Assistance à la programmation : Marc-Olivier Méhu
Soutien technique & logistique : Manuel Goepfert

Contact : metmap@orbifly.com




SOURCES & CREDITS :

   NOAA